createdAt,value
2023-02-14T00:00:41.684Z,30.40
2023-02-14T00:04:58.836Z,30.50
2023-02-14T00:09:18.213Z,39.67
2023-02-14T00:13:35.300Z,31.20
2023-02-14T00:17:54.674Z,34.20
2023-02-14T00:22:11.889Z,39.17
2023-02-14T00:26:29.031Z,29.55
2023-02-14T00:30:47.206Z,30.13
2023-02-14T00:35:04.551Z,28.40
2023-02-14T00:39:21.712Z,31.38
2023-02-14T00:43:38.846Z,29.02
2023-02-14T00:47:56.001Z,30.55
2023-02-14T00:52:14.226Z,30.20
2023-02-14T00:56:32.201Z,30.80
2023-02-14T01:00:49.435Z,32.53
2023-02-14T01:05:06.728Z,38.58
2023-02-14T01:09:23.889Z,42.97
2023-02-14T01:13:41.535Z,41.75
2023-02-14T01:17:59.454Z,51.40
2023-02-14T01:22:16.521Z,41.20
2023-02-14T01:26:34.758Z,32.03
2023-02-14T01:35:09.989Z,29.67
2023-02-14T01:39:27.083Z,27.77
2023-02-14T01:43:50.044Z,24.58
2023-02-14T01:48:08.599Z,35.92
2023-02-14T01:52:40.916Z,30.17
2023-02-14T01:57:02.404Z,31.27
2023-02-14T02:01:20.094Z,23.98
2023-02-14T02:05:39.745Z,24.98
2023-02-14T02:10:00.437Z,24.10
2023-02-14T02:14:21.059Z,23.02
2023-02-14T02:19:12.804Z,21.92
2023-02-14T02:23:57.288Z,21.88
2023-02-14T02:28:36.191Z,22.05
2023-02-14T02:33:12.709Z,20.38
2023-02-14T02:37:43.189Z,21.95
2023-02-14T02:42:19.072Z,20.80
2023-02-14T02:46:49.513Z,20.65
2023-02-14T02:51:30.101Z,19.00
2023-02-14T02:56:20.567Z,19.85
2023-02-14T03:00:37.767Z,19.35
2023-02-14T03:04:56.915Z,18.23
2023-02-14T03:09:34.711Z,17.92
2023-02-14T03:14:02.091Z,18.52
2023-02-14T03:18:39.375Z,18.88
2023-02-14T03:23:23.318Z,17.45
2023-02-14T03:28:09.754Z,17.83
2023-02-14T03:32:54.183Z,17.10
2023-02-14T03:37:20.475Z,17.55
2023-02-14T03:41:43.750Z,17.65
2023-02-14T03:46:24.318Z,19.73
2023-02-14T03:50:45.275Z,17.70
2023-02-14T03:55:06.807Z,17.23
2023-02-14T03:59:27.388Z,17.92
2023-02-14T04:03:44.924Z,18.17
2023-02-14T04:08:02.044Z,18.20
2023-02-14T04:12:32.305Z,19.38
2023-02-14T04:17:14.368Z,16.33
2023-02-14T04:21:31.503Z,17.15
2023-02-14T04:25:49.654Z,16.23
2023-02-14T04:30:07.431Z,16.20
2023-02-14T04:34:24.588Z,16.65
2023-02-14T04:38:41.688Z,15.05
2023-02-14T04:43:01.476Z,14.88
2023-02-14T04:47:18.734Z,13.73
2023-02-14T04:51:35.850Z,13.93
2023-02-14T04:55:52.937Z,14.52
2023-02-14T05:00:11.025Z,14.82
2023-02-14T05:04:28.128Z,16.70
2023-02-14T05:08:45.272Z,13.93
2023-02-14T05:13:02.369Z,13.63
2023-02-14T05:17:19.462Z,13.25
2023-02-14T05:21:36.675Z,12.20
2023-02-14T05:25:53.812Z,12.82
2023-02-14T05:30:12.393Z,13.23
2023-02-14T05:34:29.657Z,13.80
2023-02-14T05:38:46.752Z,12.10
2023-02-14T05:43:03.912Z,11.65
2023-02-14T05:47:21.088Z,11.75
2023-02-14T05:51:38.293Z,12.30
2023-02-14T05:55:55.413Z,13.10
2023-02-14T06:00:13.318Z,13.18
2023-02-14T06:04:30.486Z,13.25
2023-02-14T06:08:47.565Z,14.27
2023-02-14T06:13:08.739Z,14.35
2023-02-14T06:17:25.853Z,14.57
2023-02-14T06:21:42.956Z,14.60
2023-02-14T06:26:00.148Z,15.43
2023-02-14T06:30:18.194Z,16.63
2023-02-14T06:34:35.531Z,16.85
2023-02-14T06:38:52.620Z,16.67
2023-02-14T06:43:09.752Z,18.40
2023-02-14T06:47:26.846Z,16.38
2023-02-14T06:51:43.957Z,18.70
2023-02-14T06:56:01.030Z,17.95
2023-02-14T07:00:18.922Z,17.35
2023-02-14T07:04:35.995Z,17.88
2023-02-14T07:08:53.077Z,17.95
2023-02-14T07:13:10.440Z,17.48
2023-02-14T07:17:27.720Z,17.30
2023-02-14T07:21:44.810Z,18.25
2023-02-14T07:26:02.098Z,19.02
2023-02-14T07:30:19.348Z,17.70
2023-02-14T07:34:36.485Z,19.35
2023-02-14T07:38:56.241Z,18.80
2023-02-14T07:43:13.366Z,19.27
2023-02-14T07:47:30.638Z,18.83
2023-02-14T07:51:47.839Z,18.42
2023-02-14T07:56:05.064Z,18.17
2023-02-14T08:00:22.708Z,17.70
2023-02-14T08:04:39.813Z,17.43
2023-02-14T08:08:56.924Z,17.00
2023-02-14T08:13:14.044Z,15.82
2023-02-14T08:17:31.122Z,14.32
2023-02-14T08:21:48.264Z,14.73
2023-02-14T08:26:05.761Z,14.80
2023-02-14T08:30:23.360Z,13.37
2023-02-14T08:34:40.468Z,13.67
2023-02-14T08:38:57.796Z,12.63
2023-02-14T08:43:15.083Z,12.60
2023-02-14T08:47:35.752Z,12.07
2023-02-14T08:51:54.497Z,11.20
2023-02-14T08:56:14.021Z,13.13
2023-02-14T09:00:33.000Z,12.35
2023-02-14T09:04:50.206Z,12.43
2023-02-14T09:09:07.729Z,12.13
2023-02-14T09:13:25.125Z,14.73
2023-02-14T09:17:42.279Z,15.70
2023-02-14T09:21:59.917Z,19.83
2023-02-14T09:26:17.618Z,20.20
2023-02-14T09:30:34.785Z,19.30
2023-02-14T09:34:52.440Z,16.17
2023-02-14T09:39:09.632Z,14.55
2023-02-14T09:43:44.801Z,15.25
2023-02-14T09:48:10.389Z,14.38
2023-02-14T09:52:30.011Z,15.20
2023-02-14T09:57:08.764Z,15.50
2023-02-14T10:01:34.606Z,15.45
2023-02-14T10:06:14.748Z,14.75
2023-02-14T10:10:43.491Z,15.23
2023-02-14T10:15:07.702Z,15.38
2023-02-14T10:19:34.344Z,15.35
2023-02-14T10:23:57.821Z,15.35
2023-02-14T10:28:16.988Z,15.18
2023-02-14T10:32:46.547Z,14.52
2023-02-14T10:37:19.890Z,14.38
2023-02-14T10:41:49.237Z,15.50
2023-02-14T10:46:36.612Z,15.02
2023-02-14T10:51:04.551Z,13.82
2023-02-14T10:55:32.361Z,15.70
2023-02-14T11:00:16.797Z,13.87
2023-02-14T11:04:34.920Z,14.52
2023-02-14T11:08:52.097Z,13.30
2023-02-14T11:13:36.100Z,14.57
2023-02-14T11:18:24.692Z,14.07
2023-02-14T11:22:41.796Z,13.45
2023-02-14T11:27:17.919Z,12.75
2023-02-14T11:31:37.904Z,13.57
2023-02-14T11:35:56.311Z,14.32
2023-02-14T11:40:37.063Z,13.98
2023-02-14T11:44:56.230Z,12.75
2023-02-14T11:49:30.832Z,13.38
2023-02-14T11:53:51.301Z,12.55
2023-02-14T11:58:18.575Z,13.13
2023-02-14T12:02:42.026Z,12.88
2023-02-14T12:07:15.818Z,12.88
2023-02-14T12:11:33.188Z,12.20
2023-02-14T12:15:55.097Z,11.75
2023-02-14T12:20:16.814Z,11.13
2023-02-14T12:24:39.474Z,10.50
2023-02-14T12:29:10.914Z,10.32
2023-02-14T12:33:28.546Z,8.52
2023-02-14T12:38:10.214Z,8.38
2023-02-14T12:42:41.426Z,7.90
2023-02-14T12:47:31.212Z,7.72
2023-02-14T12:52:17.183Z,7.15
2023-02-14T12:57:01.091Z,8.05
2023-02-14T13:01:39.062Z,7.20
2023-02-14T13:06:13.347Z,9.13
2023-02-14T13:11:03.683Z,10.07
2023-02-14T13:15:48.544Z,9.68
2023-02-14T13:20:38.835Z,9.00
2023-02-14T13:25:06.608Z,9.60
2023-02-14T13:29:27.297Z,10.73
2023-02-14T13:33:58.372Z,10.38
2023-02-14T13:38:17.217Z,10.07
2023-02-14T13:42:51.243Z,10.13
2023-02-14T13:47:17.213Z,10.13
2023-02-14T13:51:50.477Z,11.15
2023-02-14T13:56:13.345Z,11.43
2023-02-14T14:00:37.913Z,11.60
2023-02-14T14:04:55.078Z,10.52
2023-02-14T14:09:12.832Z,9.68
2023-02-14T14:13:46.580Z,11.45
2023-02-14T14:18:31.624Z,10.68
2023-02-14T14:22:54.373Z,11.07
2023-02-14T14:27:24.766Z,12.80
2023-02-14T14:31:42.141Z,9.02
2023-02-14T14:36:10.204Z,9.63
2023-02-14T14:40:29.553Z,9.57
2023-02-14T14:45:28.845Z,8.77
2023-02-14T14:49:46.091Z,10.32
2023-02-14T14:54:14.950Z,9.10
2023-02-14T14:58:39.628Z,9.20
2023-02-14T15:03:25.235Z,9.10
2023-02-14T15:07:42.354Z,8.63
2023-02-14T15:12:21.475Z,9.32
2023-02-14T15:16:45.673Z,10.00
2023-02-14T15:21:05.113Z,9.48
2023-02-14T15:25:33.993Z,9.68
2023-02-14T15:30:06.555Z,9.07
2023-02-14T15:34:27.941Z,10.57
2023-02-14T15:38:45.973Z,10.38
2023-02-14T15:43:18.008Z,10.90
2023-02-14T15:47:35.351Z,10.95
2023-02-14T15:51:53.104Z,10.70
2023-02-14T15:56:24.942Z,10.98
2023-02-14T16:00:44.272Z,11.55
2023-02-14T16:05:23.220Z,10.75
2023-02-14T16:09:40.399Z,10.32
2023-02-14T16:13:58.293Z,10.55
2023-02-14T16:18:31.822Z,8.30
2023-02-14T16:22:49.589Z,8.80
2023-02-14T16:27:07.024Z,10.00
2023-02-14T16:31:25.267Z,11.55
2023-02-14T16:35:42.572Z,11.80
2023-02-14T16:40:01.316Z,11.30
2023-02-14T16:44:20.458Z,12.13
2023-02-14T16:48:37.681Z,12.48
2023-02-14T16:52:57.761Z,14.50
2023-02-14T16:57:27.717Z,13.35
2023-02-14T17:01:45.231Z,14.15
2023-02-14T17:06:03.264Z,15.00
2023-02-14T17:10:20.648Z,16.70
2023-02-14T17:14:40.707Z,14.57
2023-02-14T17:18:58.152Z,18.80
2023-02-14T17:23:15.606Z,16.58
2023-02-14T17:27:32.699Z,18.52
2023-02-14T17:31:50.064Z,16.95
2023-02-14T17:36:12.581Z,16.73
2023-02-14T17:40:30.407Z,16.77
2023-02-14T17:44:47.491Z,16.35
2023-02-14T17:49:04.685Z,15.82
2023-02-14T17:53:21.776Z,15.30
2023-02-14T17:57:40.892Z,16.90
2023-02-14T18:01:58.610Z,16.48
2023-02-14T18:06:15.773Z,17.50
2023-02-14T18:10:32.852Z,15.57
2023-02-14T18:14:50.372Z,21.20
2023-02-14T18:19:10.024Z,23.83
2023-02-14T18:23:27.533Z,20.67
2023-02-14T18:27:44.617Z,20.00
2023-02-14T18:32:01.768Z,20.83
2023-02-14T18:36:24.088Z,21.20
2023-02-14T18:40:42.799Z,24.42
2023-02-14T18:44:59.919Z,23.45
2023-02-14T18:49:17.123Z,26.20
2023-02-14T18:53:35.072Z,24.45
2023-02-14T18:57:52.151Z,20.13
2023-02-14T19:02:09.392Z,20.75
2023-02-14T19:06:29.414Z,20.52
2023-02-14T19:10:46.505Z,19.48
2023-02-14T19:15:05.934Z,19.40
2023-02-14T19:19:23.954Z,17.48
2023-02-14T19:23:41.584Z,18.33
2023-02-14T19:27:58.781Z,18.40
2023-02-14T19:32:15.934Z,18.08
2023-02-14T19:36:35.198Z,19.95
2023-02-14T19:40:52.406Z,18.40
2023-02-14T19:45:09.813Z,19.05
2023-02-14T19:49:31.853Z,20.70
2023-02-14T19:53:49.852Z,20.83
2023-02-14T19:58:07.085Z,20.10
2023-02-14T20:02:24.648Z,20.15
2023-02-14T20:06:42.859Z,18.65
2023-02-14T20:15:18.080Z,20.00
2023-02-14T20:19:36.943Z,18.63
2023-02-14T20:24:00.702Z,20.67
2023-02-14T20:28:17.951Z,20.65
2023-02-14T20:32:35.875Z,20.10
2023-02-14T20:36:55.242Z,19.73
2023-02-14T20:41:13.799Z,21.75
2023-02-14T20:45:30.958Z,22.63
2023-02-14T20:49:48.098Z,21.92
2023-02-14T20:54:05.342Z,22.10
2023-02-14T20:58:22.422Z,20.98
2023-02-14T21:02:39.666Z,21.05
2023-02-14T21:06:57.843Z,20.77
2023-02-14T21:11:17.532Z,21.27
2023-02-14T21:15:34.675Z,19.20
2023-02-14T21:19:51.835Z,20.50
2023-02-14T21:24:17.018Z,20.02
2023-02-14T21:28:34.158Z,20.10
2023-02-14T21:32:51.303Z,18.38
2023-02-14T21:37:08.415Z,20.25
2023-02-14T21:41:30.688Z,21.30
2023-02-14T21:45:54.661Z,21.13
2023-02-14T21:50:30.336Z,18.33
2023-02-14T21:54:47.565Z,19.42
2023-02-14T21:59:05.254Z,18.08
2023-02-14T22:03:22.384Z,17.15
2023-02-14T22:07:39.497Z,17.67
2023-02-14T22:11:56.613Z,16.65
2023-02-14T22:16:16.399Z,19.20
2023-02-14T22:20:33.517Z,17.02
2023-02-14T22:24:51.285Z,17.90
2023-02-14T22:29:11.098Z,16.90
2023-02-14T22:33:28.234Z,18.52
2023-02-14T22:37:45.334Z,17.83
2023-02-14T22:42:06.634Z,16.75
2023-02-14T22:46:26.999Z,14.73
2023-02-14T22:50:44.264Z,18.90
2023-02-14T22:55:01.383Z,18.30
2023-02-14T22:59:20.462Z,15.95
2023-02-14T23:03:37.603Z,16.60
2023-02-14T23:07:54.701Z,15.88
2023-02-14T23:12:31.777Z,15.40
2023-02-14T23:17:07.727Z,15.93
2023-02-14T23:21:43.570Z,15.75
2023-02-14T23:26:01.073Z,14.73
2023-02-14T23:30:19.194Z,15.25
2023-02-14T23:34:40.353Z,14.93
2023-02-14T23:38:57.551Z,14.30
2023-02-14T23:43:14.669Z,14.83
2023-02-14T23:47:34.350Z,15.43
2023-02-14T23:51:53.502Z,16.23
2023-02-14T23:56:10.802Z,15.07
